Time;durP1;ratioP1;P1;durP2;ratioP2;P2;SDS_P1;SDS_P2;PMS_P1;PMS_P2;Temp;Humidity;BMP_temperature;BMP_pressure;BME280_temperature;BME280_humidity;BME280_pressure;Samples;Min_cycle;Max_cycle;Signal;HPM_P1;HPM_P2
2022/02/28 00:04:18;;;;;;;5.60;2.70;;;17.70;58.30;;;;;;10421505;28;20044;-55
2022/02/28 00:09:20;;;;;;;3.17;2.33;;;17.70;58.40;;;;;;10388752;28;20034;-56
2022/02/28 00:14:21;;;;;;;3.10;2.40;;;17.70;58.30;;;;;;10428835;28;20497;-56
2022/02/28 00:19:22;;;;;;;3.00;2.40;;;17.70;58.80;;;;;;10414977;28;20040;-56
2022/02/28 00:24:23;;;;;;;4.20;2.78;;;17.70;58.30;;;;;;10428690;28;20132;-56
2022/02/28 00:29:24;;;;;;;3.60;2.47;;;17.70;58.00;;;;;;10419644;28;20086;-55
2022/02/28 00:34:24;;;;;;;3.75;2.70;;;17.70;57.90;;;;;;10428015;28;20041;-56
2022/02/28 00:39:25;;;;;;;4.30;2.95;;;17.70;58.00;;;;;;10412829;28;20033;-56
2022/02/28 00:44:26;;;;;;;3.70;2.72;;;17.60;58.00;;;;;;10412717;28;20100;-55
2022/02/28 00:49:27;;;;;;;3.83;2.33;;;17.70;57.90;;;;;;10411122;28;20545;-55
2022/02/28 00:54:28;;;;;;;3.53;2.38;;;17.60;57.90;;;;;;10411276;28;20025;-56
2022/02/28 00:59:28;;;;;;;3.78;2.38;;;17.70;57.60;;;;;;10427924;28;20029;-56
2022/02/28 01:04:29;;;;;;;3.22;2.25;;;17.90;57.30;;;;;;10401812;28;20083;-54
2022/02/28 01:09:30;;;;;;;2.97;1.90;;;17.90;57.20;;;;;;10435480;28;20032;-56
2022/02/28 01:14:31;;;;;;;3.95;2.42;;;17.80;57.40;;;;;;10435059;28;20382;-55
2022/02/28 01:19:33;;;;;;;3.08;2.10;;;17.80;57.40;;;;;;10435245;28;20136;-56
2022/02/28 01:24:33;;;;;;;3.97;2.55;;;17.80;57.30;;;;;;10434887;28;20120;-56
2022/02/28 01:29:34;;;;;;;3.53;2.30;;;17.80;57.20;;;;;;10434511;28;20116;-56
2022/02/28 01:34:35;;;;;;;3.33;2.13;;;17.80;57.30;;;;;;10434186;28;20398;-56
2022/02/28 01:39:36;;;;;;;3.42;2.10;;;17.80;57.00;;;;;;10417731;28;20573;-56
2022/02/28 01:44:37;;;;;;;3.30;2.28;;;17.80;57.80;;;;;;10417497;28;20448;-56
2022/02/28 01:49:38;;;;;;;2.92;1.95;;;17.90;56.90;;;;;;10418366;28;20094;-57
2022/02/28 01:54:38;;;;;;;2.83;1.77;;;17.90;56.80;;;;;;10417332;28;20026;-56
2022/02/28 01:59:40;;;;;;;4.22;2.15;;;17.90;56.80;;;;;;10417307;28;20043;-56
2022/02/28 02:04:41;;;;;;;2.95;1.95;;;17.90;57.00;;;;;;10400526;28;20449;-56
2022/02/28 02:09:42;;;;;;;2.67;1.58;;;17.70;57.00;;;;;;10417886;28;20032;-56
2022/02/28 02:14:43;;;;;;;3.25;2.30;;;17.70;57.10;;;;;;10416240;28;20032;-56
2022/02/28 02:19:46;;;;;;;3.47;1.77;;;17.80;56.80;;;;;;10416146;28;20045;-55
2022/02/28 02:24:51;;;;;;;3.30;2.22;;;17.90;56.60;;;;;;10432707;28;20029;-56
2022/02/28 02:29:51;;;;;;;2.97;1.60;;;17.90;56.60;;;;;;10415616;28;20379;-56
2022/02/28 02:34:52;;;;;;;2.92;2.10;;;17.90;56.50;;;;;;10416558;28;20071;-55
2022/02/28 02:39:53;;;;;;;2.60;1.80;;;17.90;57.30;;;;;;10432255;28;20039;-56
2022/02/28 02:44:53;;;;;;;3.10;1.42;;;17.90;56.50;;;;;;10416627;28;20088;-56
2022/02/28 02:49:54;;;;;;;3.00;2.03;;;17.80;56.70;;;;;;10416126;28;20120;-56
2022/02/28 02:54:55;;;;;;;2.97;1.77;;;17.80;56.70;;;;;;10414908;28;20129;-56
2022/02/28 02:59:56;;;;;;;2.80;1.60;;;17.80;56.70;;;;;;10418798;28;20089;-56
2022/02/28 03:04:57;;;;;;;2.55;1.55;;;17.80;56.50;;;;;;10415353;28;20627;-57
2022/02/28 03:09:57;;;;;;;2.80;1.80;;;17.90;56.30;;;;;;10397855;28;20044;-56
2022/02/28 03:14:58;;;;;;;2.85;2.00;;;17.90;56.10;;;;;;10413984;28;20025;-55
2022/02/28 03:19:59;;;;;;;2.17;1.10;;;17.90;56.30;;;;;;10414053;28;20037;-56
2022/02/28 03:25:00;;;;;;;2.80;1.55;;;17.90;56.30;;;;;;10429720;28;20079;-56
2022/02/28 03:30:00;;;;;;;2.75;1.70;;;17.80;56.30;;;;;;10386516;28;20048;-56
2022/02/28 03:35:04;;;;;;;2.63;1.75;;;17.90;56.20;;;;;;10412976;28;20091;-57
2022/02/28 03:40:06;;;;;;;3.10;1.75;;;17.80;56.30;;;;;;10413073;28;20037;-55
2022/02/28 03:45:07;;;;;;;2.28;1.60;;;17.80;56.20;;;;;;10416162;28;20037;-55
2022/02/28 03:50:08;;;;;;;2.30;1.45;;;17.80;56.20;;;;;;10413942;28;20029;-56
2022/02/28 03:55:10;;;;;;;1.77;1.27;;;17.90;56.10;;;;;;10412382;28;20039;-56
2022/02/28 04:00:12;;;;;;;2.33;1.40;;;17.90;56.10;;;;;;10416054;28;20025;-56
2022/02/28 04:05:14;;;;;;;2.33;1.58;;;17.90;56.10;;;;;;10410272;28;20033;-56
2022/02/28 04:10:15;;;;;;;1.83;1.40;;;17.90;56.30;;;;;;10428513;28;20025;-56
2022/02/28 04:15:16;;;;;;;2.53;1.73;;;17.80;56.20;;;;;;10413556;28;20080;-57
2022/02/28 04:20:16;;;;;;;2.45;1.38;;;17.90;56.10;;;;;;10413197;28;20417;-56
2022/02/28 04:25:17;;;;;;;3.95;2.05;;;18.00;55.90;;;;;;10411889;28;20033;-56
2022/02/28 04:30:20;;;;;;;2.08;1.35;;;18.00;55.60;;;;;;10411839;28;20068;-55
2022/02/28 04:35:21;;;;;;;2.70;1.50;;;17.90;55.50;;;;;;10411382;28;20054;-56
2022/02/28 04:40:22;;;;;;;1.80;1.20;;;17.80;55.80;;;;;;10426958;28;20490;-57
2022/02/28 04:45:23;;;;;;;2.55;1.40;;;17.90;55.70;;;;;;10420800;28;20029;-56
2022/02/28 04:50:24;;;;;;;2.28;1.40;;;17.80;55.70;;;;;;10419112;28;20087;-56
2022/02/28 04:55:25;;;;;;;2.13;1.58;;;17.90;55.50;;;;;;10418931;28;20026;-56
2022/02/28 05:00:26;;;;;;;2.78;1.83;;;17.90;55.50;;;;;;10422604;28;20037;-55
2022/02/28 05:05:27;;;;;;;2.03;1.30;;;17.90;55.30;;;;;;10402447;28;20021;-55
2022/02/28 05:10:28;;;;;;;2.40;1.40;;;18.00;55.20;;;;;;10390830;28;20042;-54
2022/02/28 05:15:28;;;;;;;3.05;1.80;;;18.00;55.00;;;;;;10418827;28;20021;-56
2022/02/28 05:20:29;;;;;;;1.83;1.35;;;18.00;54.80;;;;;;10405436;28;20478;-56
2022/02/28 05:25:30;;;;;;;2.97;1.80;;;17.90;55.00;;;;;;10395544;28;20378;-56
2022/02/28 05:30:31;;;;;;;2.33;1.30;;;17.90;55.20;;;;;;10434891;28;20435;-56
2022/02/28 05:35:31;;;;;;;2.80;1.52;;;17.80;55.20;;;;;;10415288;28;20041;-56
2022/02/28 05:40:32;;;;;;;1.88;1.20;;;17.80;55.20;;;;;;10418886;28;20417;-56
2022/02/28 05:45:35;;;;;;;2.80;1.33;;;17.80;55.10;;;;;;10417560;28;20117;-55
2022/02/28 05:50:36;;;;;;;2.50;1.65;;;17.90;54.90;;;;;;10403553;28;20033;-56
2022/02/28 05:55:36;;;;;;;1.85;1.40;;;18.00;54.70;;;;;;10400329;28;20119;-56
2022/02/28 06:00:37;;;;;;;3.53;1.50;;;18.00;54.40;;;;;;10426152;28;20083;-56
2022/02/28 06:05:38;;;;;;;2.55;1.90;;;18.00;54.60;;;;;;10425691;28;20052;-58
2022/02/28 06:10:38;;;;;;;4.45;1.88;;;18.10;54.60;;;;;;10417570;28;20117;-57
2022/02/28 06:15:41;;;;;;;4.82;1.98;;;17.80;55.80;;;;;;10416140;28;20108;-57
2022/02/28 06:20:43;;;;;;;3.67;2.10;;;18.00;57.00;;;;;;10420529;28;20033;-57
2022/02/28 06:25:45;;;;;;;4.25;1.65;;;18.00;57.30;;;;;;10416063;28;20480;-56
2022/02/28 06:30:46;;;;;;;9.45;2.38;;;18.00;57.70;;;;;;10432218;28;20038;-56
2022/02/28 06:35:48;;;;;;;6.43;2.22;;;18.00;57.30;;;;;;10415477;28;20071;-56
2022/02/28 06:40:49;;;;;;;5.72;2.70;;;18.00;57.00;;;;;;10420229;28;20017;-57
2022/02/28 06:45:55;;;;;;;5.72;2.10;;;18.00;56.90;;;;;;10412976;28;20041;-56
2022/02/28 06:50:56;;;;;;;3.05;1.70;;;17.80;57.30;;;;;;10416755;28;20038;-58
2022/02/28 06:55:56;;;;;;;9.98;2.55;;;17.70;57.60;;;;;;10414368;28;20033;-58
2022/02/28 07:00:57;;;;;;;18.50;4.82;;;17.70;57.50;;;;;;10413525;28;20120;-57
2022/02/28 07:05:58;;;;;;;19.85;3.65;;;17.80;58.10;;;;;;10403432;28;20033;-57
2022/02/28 07:10:59;;;;;;;17.63;2.83;;;17.90;57.60;;;;;;10413245;28;20549;-57
2022/02/28 07:16:00;;;;;;;22.60;4.72;;;17.70;58.20;;;;;;10424626;28;20029;-58
2022/02/28 07:21:01;;;;;;;15.18;3.72;;;17.60;58.30;;;;;;10410718;28;20041;-58
2022/02/28 07:26:02;;;;;;;24.42;4.25;;;17.60;58.60;;;;;;10409621;28;20037;-57
2022/02/28 07:31:03;;;;;;;21.85;4.00;;;17.60;58.70;;;;;;10393466;28;20260;-57
2022/02/28 07:36:06;;;;;;;19.98;3.42;;;17.70;58.60;;;;;;10393105;28;20128;-57
2022/02/28 07:41:07;;;;;;;11.10;3.10;;;17.80;58.60;;;;;;10412515;28;20140;-59
2022/02/28 07:46:08;;;;;;;17.58;3.85;;;17.70;58.90;;;;;;10410441;28;20029;-58
2022/02/28 07:51:09;;;;;;;13.70;3.13;;;17.70;59.10;;;;;;10411339;28;20029;-57
2022/02/28 07:56:10;;;;;;;24.48;3.67;;;17.70;59.30;;;;;;10412779;28;20024;-57
2022/02/28 08:01:11;;;;;;;16.65;3.45;;;17.80;59.10;;;;;;10428063;28;20112;-57
2022/02/28 08:06:11;;;;;;;16.15;3.88;;;17.70;59.20;;;;;;10412710;28;20445;-57
2022/02/28 08:11:12;;;;;;;11.48;3.03;;;17.70;59.60;;;;;;10402073;28;20044;-57
2022/02/28 08:16:13;;;;;;;24.67;3.10;;;17.60;59.30;;;;;;10398250;28;20040;-56
2022/02/28 08:21:13;;;;;;;14.60;3.65;;;17.60;59.50;;;;;;10411404;28;20108;-57
2022/02/28 08:26:14;;;;;;;12.68;3.60;;;17.60;59.30;;;;;;10410793;28;20498;-56
2022/02/28 08:31:15;;;;;;;7.18;3.15;;;17.60;59.70;;;;;;10411443;28;20038;-55
2022/02/28 08:36:16;;;;;;;19.00;3.88;;;17.50;59.90;;;;;;10398364;28;20107;-57
2022/02/28 08:41:16;;;;;;;13.02;2.83;;;17.50;60.50;;;;;;10411507;28;20029;-56
2022/02/28 08:46:17;;;;;;;13.70;3.47;;;17.40;59.90;;;;;;10411157;28;20033;-57
2022/02/28 08:51:18;;;;;;;12.75;3.72;;;17.30;60.10;;;;;;10410880;28;20112;-56
2022/02/28 08:56:19;;;;;;;11.52;3.35;;;17.30;60.40;;;;;;10409688;28;20041;-57
2022/02/28 09:01:20;;;;;;;8.25;3.00;;;17.20;60.30;;;;;;10408577;28;20386;-55
2022/02/28 09:06:21;;;;;;;13.80;3.17;;;17.20;60.30;;;;;;10408244;28;20108;-56
2022/02/28 09:11:22;;;;;;;9.10;2.90;;;17.20;60.20;;;;;;10415020;28;20030;-56
2022/02/28 09:16:23;;;;;;;6.78;2.95;;;17.20;60.20;;;;;;10409777;28;20257;-56
2022/02/28 09:21:24;;;;;;;10.18;2.97;;;17.20;60.20;;;;;;10410071;28;20468;-56
2022/02/28 09:26:25;;;;;;;8.70;2.97;;;17.20;60.10;;;;;;10417620;28;20112;-57
2022/02/28 09:31:25;;;;;;;6.72;3.30;;;17.20;60.00;;;;;;10418065;28;20054;-56
2022/02/28 09:36:26;;;;;;;9.02;2.70;;;17.20;59.90;;;;;;10397673;28;20053;-56
2022/02/28 09:41:28;;;;;;;7.45;2.10;;;17.20;59.80;;;;;;10432810;28;20034;-56
2022/02/28 09:46:29;;;;;;;6.32;2.33;;;17.20;59.60;;;;;;10416255;28;20072;-56
2022/02/28 09:51:30;;;;;;;8.90;2.67;;;17.30;59.60;;;;;;10406808;28;20352;-56
2022/02/28 09:56:32;;;;;;;4.68;2.13;;;17.20;59.60;;;;;;10417171;28;20044;-56
2022/02/28 10:01:33;;;;;;;8.93;2.38;;;17.20;59.50;;;;;;10421446;28;20037;-55
2022/02/28 10:06:33;;;;;;;5.78;2.33;;;17.20;59.50;;;;;;10425561;28;20029;-56
2022/02/28 10:11:41;;;;;;;6.20;2.28;;;17.20;59.50;;;;;;10432777;28;20095;-56
2022/02/28 10:16:47;;;;;;;5.80;2.08;;;17.30;59.40;;;;;;10431840;28;20033;-56
2022/02/28 10:21:49;;;;;;;5.57;2.67;;;17.20;59.30;;;;;;10416458;28;20069;-56
2022/02/28 10:26:57;;;;;;;5.05;2.33;;;17.30;59.20;;;;;;10415665;28;20112;-56
2022/02/28 10:32:07;;;;;;;5.72;2.40;;;17.30;59.00;;;;;;10399186;28;20052;-56
2022/02/28 10:37:07;;;;;;;7.53;2.28;;;17.30;59.00;;;;;;10400383;28;20049;-56
2022/02/28 10:42:16;;;;;;;5.25;2.00;;;17.40;59.00;;;;;;10413799;28;20119;-55
2022/02/28 10:47:17;;;;;;;4.72;1.80;;;17.40;58.80;;;;;;10413379;28;20091;-55
2022/02/28 10:52:18;;;;;;;3.90;1.85;;;17.40;58.90;;;;;;10414213;28;20570;-56
2022/02/28 10:57:24;;;;;;;2.75;2.08;;;17.40;58.80;;;;;;10395532;28;20028;-55
2022/02/28 11:02:31;;;;;;;3.33;1.90;;;17.40;58.80;;;;;;10419843;28;20033;-55
2022/02/28 11:07:53;;;;;;;3.88;2.13;;;17.40;58.70;;;;;;10410798;28;20100;-55
2022/02/28 11:12:58;;;;;;;3.60;1.90;;;17.50;58.60;;;;;;10420523;28;20037;-55
2022/02/28 11:18:00;;;;;;;4.95;2.10;;;17.50;58.50;;;;;;10396056;28;20128;-56
2022/02/28 11:23:04;;;;;;;5.22;1.73;;;17.60;58.50;;;;;;10395795;28;20473;-56
2022/02/28 11:28:04;;;;;;;9.55;2.55;;;17.50;58.50;;;;;;10410408;28;20704;-56
2022/02/28 11:33:10;;;;;;;14.07;2.70;;;17.50;58.10;;;;;;10411253;28;20106;-55
2022/02/28 11:38:16;;;;;;;15.85;2.92;;;17.60;58.40;;;;;;10405816;28;20136;-57
2022/02/28 11:43:26;;;;;;;10.88;2.72;;;17.60;58.10;;;;;;10414039;28;20029;-57
2022/02/28 11:48:52;;;;;;;7.43;2.90;;;17.70;58.30;;;;;;10427565;28;20055;-54
2022/02/28 11:53:57;;;;;;;9.23;2.63;;;17.70;58.40;;;;;;10413773;28;20117;-56
2022/02/28 11:59:04;;;;;;;8.68;2.40;;;17.70;58.80;;;;;;10413644;28;20041;-53
2022/02/28 12:04:08;;;;;;;7.43;2.83;;;17.80;59.10;;;;;;10426658;28;20029;-55
2022/02/28 12:09:09;;;;;;;7.50;2.58;;;17.80;59.20;;;;;;10410411;28;20052;-54
2022/02/28 12:14:09;;;;;;;7.63;2.88;;;17.80;59.30;;;;;;10402145;28;20028;-53
2022/02/28 12:19:14;;;;;;;9.73;2.38;;;17.90;59.60;;;;;;10384579;28;20439;-55
2022/02/28 12:24:15;;;;;;;9.15;2.40;;;17.90;60.00;;;;;;10409510;28;20405;-55
2022/02/28 12:29:15;;;;;;;7.10;2.63;;;17.90;60.20;;;;;;10426093;28;20150;-54
2022/02/28 12:34:17;;;;;;;10.85;2.72;;;17.80;60.40;;;;;;10411877;28;20191;-56
2022/02/28 12:39:18;;;;;;;17.80;3.08;;;17.90;60.60;;;;;;10427035;28;20033;-58
2022/02/28 12:44:19;;;;;;;13.18;3.15;;;18.00;60.40;;;;;;10394993;28;20029;-57
2022/02/28 12:49:26;;;;;;;8.07;1.90;;;17.90;60.50;;;;;;10410817;28;20037;-56
2022/02/28 12:54:27;;;;;;;8.13;2.08;;;17.90;60.40;;;;;;10410951;28;20636;-55
2022/02/28 12:59:45;;;;;;;6.47;2.53;;;17.90;60.20;;;;;;10430053;28;20033;-54
2022/02/28 13:04:53;;;;;;;9.85;2.25;;;17.90;60.00;;;;;;10418690;28;20371;-56
2022/02/28 13:09:54;;;;;;;5.77;3.23;;;17.90;59.40;;;;;;10429018;28;20033;-57
2022/02/28 13:14:56;;;;;;;6.15;2.42;;;17.80;59.10;;;;;;10415312;28;20570;-57
2022/02/28 13:19:58;;;;;;;8.10;4.22;;;17.80;59.00;;;;;;10416853;28;20061;-57
2022/02/28 13:24:59;;;;;;;6.38;2.95;;;17.80;58.80;;;;;;10421622;28;20044;-57
2022/02/28 13:29:59;;;;;;;6.25;2.95;;;17.80;58.50;;;;;;10417538;28;20497;-56
2022/02/28 13:35:01;;;;;;;6.85;2.63;;;17.80;58.30;;;;;;10398371;28;20050;-56
2022/02/28 13:40:02;;;;;;;6.60;2.85;;;17.80;58.30;;;;;;10417585;28;20156;-56
2022/02/28 13:45:12;;;;;;;5.03;2.63;;;17.80;57.90;;;;;;10418228;28;20033;-57
2022/02/28 13:50:13;;;;;;;7.10;2.85;;;17.80;57.70;;;;;;10415978;28;20036;-56
2022/02/28 13:55:16;;;;;;;10.70;3.90;;;17.80;57.60;;;;;;10433498;28;20022;-56
2022/02/28 14:00:23;;;;;;;12.18;4.20;;;17.80;57.20;;;;;;10427124;28;20040;-56
2022/02/28 14:05:34;;;;;;;5.88;3.30;;;17.80;56.80;;;;;;10416765;28;20025;-56
2022/02/28 14:10:35;;;;;;;6.82;3.15;;;17.80;56.80;;;;;;10416677;28;20045;-56
2022/02/28 14:15:36;;;;;;;5.72;3.67;;;17.80;56.90;;;;;;10415906;28;20339;-56
2022/02/28 14:20:39;;;;;;;5.78;3.63;;;17.80;56.80;;;;;;10389591;28;20025;-57
2022/02/28 14:25:42;;;;;;;7.78;3.13;;;17.80;56.70;;;;;;10416189;28;20036;-56
2022/02/28 14:31:08;;;;;;;6.03;3.13;;;17.80;56.70;;;;;;10432282;28;20041;-56
2022/02/28 14:36:09;;;;;;;5.97;3.50;;;17.80;56.70;;;;;;10416637;28;20034;-57
2022/02/28 14:41:11;;;;;;;5.38;2.70;;;17.70;56.50;;;;;;10415860;28;20037;-61
2022/02/28 14:46:16;;;;;;;6.35;3.00;;;17.70;56.50;;;;;;10418983;28;20443;-57
2022/02/28 14:51:17;;;;;;;4.35;2.65;;;17.70;56.30;;;;;;10388811;28;20065;-57
2022/02/28 14:56:18;;;;;;;5.93;3.08;;;17.70;56.10;;;;;;10413795;28;20685;-56
2022/02/28 15:01:19;;;;;;;5.75;3.67;;;17.70;55.80;;;;;;10415845;28;20159;-56
2022/02/28 15:06:20;;;;;;;5.60;3.28;;;17.70;55.60;;;;;;10395290;28;20083;-56
2022/02/28 15:11:20;;;;;;;12.38;4.60;;;17.60;55.80;;;;;;10414455;28;20039;-57
2022/02/28 15:16:21;;;;;;;6.95;3.72;;;17.60;55.40;;;;;;10404894;28;20041;-57
2022/02/28 15:21:22;;;;;;;9.73;3.95;;;17.50;55.40;;;;;;10406671;28;20117;-56
2022/02/28 15:26:23;;;;;;;9.48;3.65;;;17.50;55.30;;;;;;10413054;28;20385;-57
2022/02/28 15:31:24;;;;;;;8.50;3.97;;;17.50;55.30;;;;;;10411312;28;20498;-57
2022/02/28 15:36:24;;;;;;;10.23;5.30;;;17.50;55.20;;;;;;10412739;28;20053;-56
2022/02/28 15:41:25;;;;;;;10.07;4.10;;;17.50;55.30;;;;;;10395840;28;20557;-57
2022/02/28 15:46:26;;;;;;;16.98;6.65;;;17.30;55.20;;;;;;10411845;28;20041;-59
2022/02/28 15:51:26;;;;;;;13.10;4.95;;;17.40;55.60;;;;;;10419404;28;20037;-56
2022/02/28 15:56:29;;;;;;;31.50;7.55;;;17.30;56.00;;;;;;10413021;28;20116;-56
2022/02/28 16:01:30;;;;;;;17.60;5.60;;;17.30;56.50;;;;;;10416987;28;20055;-56
2022/02/28 16:06:31;;;;;;;23.27;5.70;;;17.30;56.90;;;;;;10406720;28;20021;-58
2022/02/28 16:11:32;;;;;;;30.17;7.05;;;17.30;56.60;;;;;;10419310;28;20041;-57
2022/02/28 16:16:32;;;;;;;22.33;5.70;;;17.20;57.40;;;;;;10391977;28;20021;-57
2022/02/28 16:21:33;;;;;;;20.13;5.28;;;17.20;57.70;;;;;;10409317;28;20033;-58
2022/02/28 16:26:34;;;;;;;18.58;5.25;;;17.20;57.90;;;;;;10394912;28;20481;-57
2022/02/28 16:31:35;;;;;;;24.30;6.13;;;17.20;58.30;;;;;;10405206;28;20064;-57
2022/02/28 16:36:36;;;;;;;13.95;4.78;;;17.20;58.20;;;;;;10405461;28;20046;-57
2022/02/28 16:41:37;;;;;;;16.65;4.70;;;17.20;57.50;;;;;;10407417;28;20030;-57
2022/02/28 16:46:37;;;;;;;12.80;4.72;;;17.10;57.10;;;;;;10409370;28;20493;-56
2022/02/28 16:51:38;;;;;;;10.60;4.45;;;17.30;56.70;;;;;;10408707;28;20041;-58
2022/02/28 16:56:39;;;;;;;11.00;4.82;;;17.40;56.80;;;;;;10409163;28;20041;-59
2022/02/28 17:01:39;;;;;;;16.15;7.30;;;17.60;55.90;;;;;;10412128;28;20035;-60
2022/02/28 17:06:40;;;;;;;18.13;6.35;;;17.60;57.50;;;;;;10410907;28;20041;-59
2022/02/28 17:11:42;;;;;;;11.77;5.72;;;17.90;62.70;;;;;;10426384;28;20351;-59
2022/02/28 17:16:42;;;;;;;17.50;6.18;;;18.10;60.60;;;;;;10411478;28;20057;-58
2022/02/28 17:21:43;;;;;;;16.27;6.05;;;18.10;59.90;;;;;;10409469;28;20044;-59
2022/02/28 17:26:44;;;;;;;14.13;5.50;;;18.00;60.00;;;;;;10408602;28;20116;-58
2022/02/28 17:31:45;;;;;;;15.40;6.05;;;17.90;60.30;;;;;;10409145;28;20498;-62
2022/02/28 17:36:49;;;;;;;21.92;5.85;;;17.70;60.00;;;;;;10408559;28;20132;-60
2022/02/28 17:41:50;;;;;;;24.58;6.70;;;17.50;59.70;;;;;;10407731;28;20433;-60
2022/02/28 17:46:51;;;;;;;15.93;6.05;;;17.50;60.50;;;;;;10407622;28;20498;-59
2022/02/28 17:51:52;;;;;;;17.48;5.45;;;17.50;60.30;;;;;;10408446;28;20079;-59
2022/02/28 17:56:53;;;;;;;17.95;6.07;;;17.50;60.70;;;;;;10391402;28;20562;-59
2022/02/28 18:01:54;;;;;;;18.95;5.97;;;17.50;60.80;;;;;;10406474;28;20037;-59
2022/02/28 18:06:55;;;;;;;17.02;6.07;;;17.40;60.80;;;;;;10408590;28;20884;-59
2022/02/28 18:11:55;;;;;;;15.30;4.75;;;17.40;60.90;;;;;;10407447;28;20135;-60
2022/02/28 18:16:56;;;;;;;12.40;5.28;;;17.30;60.80;;;;;;10409420;28;20608;-58
2022/02/28 18:21:57;;;;;;;19.63;7.05;;;17.30;60.90;;;;;;10406835;28;20057;-60
2022/02/28 18:26:57;;;;;;;12.38;5.68;;;17.20;60.70;;;;;;10407626;28;20112;-59
2022/02/28 18:31:58;;;;;;;15.13;6.03;;;17.10;60.30;;;;;;10408723;28;20039;-58
2022/02/28 18:36:59;;;;;;;11.85;5.72;;;17.10;60.50;;;;;;10415452;28;20041;-58
2022/02/28 18:42:00;;;;;;;22.88;6.75;;;17.00;60.50;;;;;;10404729;28;20018;-58
2022/02/28 18:47:01;;;;;;;16.23;6.18;;;17.10;60.90;;;;;;10430537;28;20033;-58
2022/02/28 18:52:02;;;;;;;12.05;5.85;;;17.10;60.80;;;;;;10431194;28;20109;-58
2022/02/28 18:57:03;;;;;;;11.68;5.75;;;17.20;60.80;;;;;;10413570;28;20100;-58
2022/02/28 19:02:05;;;;;;;14.60;5.43;;;17.30;61.00;;;;;;10431278;28;20131;-58
2022/02/28 19:07:07;;;;;;;11.68;5.20;;;17.30;61.10;;;;;;10405414;28;20041;-59
2022/02/28 19:12:08;;;;;;;14.63;5.03;;;17.30;61.00;;;;;;10402854;28;20036;-59
2022/02/28 19:17:09;;;;;;;9.80;4.75;;;17.30;60.90;;;;;;10417275;28;20397;-60
2022/02/28 19:22:15;;;;;;;12.05;4.38;;;17.30;61.00;;;;;;10411879;28;20044;-57
2022/02/28 19:27:18;;;;;;;11.68;5.22;;;17.30;61.00;;;;;;10401484;28;20052;-57
2022/02/28 19:32:18;;;;;;;11.52;4.88;;;17.30;61.10;;;;;;10401912;28;20055;-57
2022/02/28 19:37:19;;;;;;;13.63;4.47;;;17.20;61.20;;;;;;10393177;28;20037;-57
2022/02/28 19:42:20;;;;;;;11.45;4.90;;;17.30;61.20;;;;;;10403374;28;20098;-58
2022/02/28 19:47:21;;;;;;;11.05;4.18;;;17.30;61.30;;;;;;10421817;28;20033;-58
2022/02/28 19:52:22;;;;;;;8.63;4.63;;;17.30;61.40;;;;;;10417312;28;20440;-58
2022/02/28 19:57:24;;;;;;;10.68;4.57;;;17.30;61.40;;;;;;10412978;28;20114;-58
2022/02/28 20:02:25;;;;;;;10.95;4.40;;;17.30;61.30;;;;;;10410447;28;20117;-58
2022/02/28 20:07:26;;;;;;;9.05;4.53;;;17.30;61.40;;;;;;10408622;28;20076;-58
2022/02/28 20:12:27;;;;;;;7.63;5.50;;;17.30;61.40;;;;;;10390880;28;20112;-57
2022/02/28 20:17:28;;;;;;;10.73;4.28;;;17.30;61.40;;;;;;10403491;28;20021;-57
2022/02/28 20:22:28;;;;;;;7.65;4.15;;;17.30;61.80;;;;;;10405225;28;20033;-58
2022/02/28 20:27:29;;;;;;;9.77;4.50;;;17.30;61.90;;;;;;10406406;28;20021;-57
2022/02/28 20:32:30;;;;;;;12.65;4.57;;;17.30;61.90;;;;;;10412692;28;20029;-57
2022/02/28 20:37:31;;;;;;;8.38;4.00;;;17.30;61.90;;;;;;10391411;28;20046;-58
2022/02/28 20:42:33;;;;;;;8.05;4.45;;;17.20;61.80;;;;;;10417243;28;20053;-57
2022/02/28 20:47:34;;;;;;;7.10;4.80;;;17.20;61.80;;;;;;10410617;28;20615;-58
2022/02/28 20:52:35;;;;;;;13.57;4.60;;;17.30;61.40;;;;;;10410177;28;20022;-57
2022/02/28 20:57:36;;;;;;;8.50;4.97;;;17.20;61.40;;;;;;10410616;28;20033;-57
2022/02/28 21:02:36;;;;;;;7.53;4.03;;;17.30;61.20;;;;;;10411239;28;20075;-57
2022/02/28 21:07:37;;;;;;;7.18;3.97;;;17.40;60.80;;;;;;10416096;28;20031;-58
2022/02/28 21:12:38;;;;;;;6.93;4.60;;;17.40;60.50;;;;;;10393039;28;20056;-57
2022/02/28 21:17:39;;;;;;;7.93;4.35;;;17.40;60.50;;;;;;10399234;28;20039;-57
2022/02/28 21:22:39;;;;;;;7.13;3.97;;;17.40;60.20;;;;;;10416766;28;20108;-57
2022/02/28 21:27:40;;;;;;;7.32;4.15;;;17.50;60.20;;;;;;10418543;28;20363;-57
2022/02/28 21:32:41;;;;;;;6.60;5.03;;;17.40;60.00;;;;;;10414813;28;20481;-57
2022/02/28 21:37:43;;;;;;;5.45;4.35;;;17.50;59.70;;;;;;10417759;28;20049;-57
2022/02/28 21:42:43;;;;;;;6.68;3.88;;;17.40;59.80;;;;;;10390007;28;20072;-58
2022/02/28 21:47:45;;;;;;;5.20;3.70;;;17.40;59.70;;;;;;10391580;28;20025;-57
2022/02/28 21:52:46;;;;;;;8.43;4.00;;;17.50;59.50;;;;;;10418344;28;20483;-58
2022/02/28 21:57:47;;;;;;;6.72;3.80;;;17.40;59.60;;;;;;10417523;28;20021;-57
2022/02/28 22:02:47;;;;;;;5.47;3.70;;;17.50;59.40;;;;;;10422983;28;20128;-59
2022/02/28 22:07:48;;;;;;;5.28;3.78;;;17.50;59.20;;;;;;10417663;28;20033;-57
2022/02/28 22:12:50;;;;;;;6.53;4.25;;;17.50;59.30;;;;;;10416012;28;20491;-58
2022/02/28 22:17:52;;;;;;;6.82;3.88;;;17.40;59.20;;;;;;10417446;28;20036;-58
2022/02/28 22:22:52;;;;;;;5.20;3.22;;;17.40;59.00;;;;;;10409273;28;20125;-58
2022/02/28 22:27:53;;;;;;;6.72;3.80;;;17.40;59.00;;;;;;10415936;28;20104;-57
2022/02/28 22:32:54;;;;;;;4.88;3.80;;;17.50;58.70;;;;;;10428400;28;20034;-57
2022/02/28 22:37:55;;;;;;;5.20;3.50;;;17.50;58.70;;;;;;10415718;28;20122;-57
2022/02/28 22:42:55;;;;;;;5.55;3.75;;;17.50;58.70;;;;;;10415268;28;20497;-56
2022/02/28 22:47:56;;;;;;;7.28;4.47;;;17.40;58.60;;;;;;10416460;28;20094;-57
2022/02/28 22:52:57;;;;;;;5.65;3.90;;;17.50;58.50;;;;;;10431626;28;20030;-58
2022/02/28 22:57:57;;;;;;;5.72;3.88;;;17.50;58.40;;;;;;10415550;28;20104;-57
2022/02/28 23:18:57;;;;;;;6.10;3.25;;;17.50;58.10;;;;;;10429109;28;20029;-57
2022/02/28 23:23:58;;;;;;;7.65;3.75;;;17.40;58.10;;;;;;10417255;28;20034;-58
2022/02/28 23:28:59;;;;;;;4.38;3.20;;;17.50;57.80;;;;;;10430367;28;20030;-57
2022/02/28 23:34:00;;;;;;;4.68;3.92;;;17.50;57.80;;;;;;10429768;28;20509;-58
2022/02/28 23:39:01;;;;;;;5.22;4.15;;;17.60;57.60;;;;;;10397130;28;20033;-57
2022/02/28 23:44:02;;;;;;;4.50;3.63;;;17.60;57.60;;;;;;10412227;28;20118;-58
2022/02/28 23:49:03;;;;;;;4.93;3.40;;;17.60;57.50;;;;;;10429724;28;20481;-58
2022/02/28 23:54:03;;;;;;;3.63;2.70;;;17.60;57.40;;;;;;10429205;28;20037;-58
2022/02/28 23:59:04;;;;;;;5.10;3.92;;;17.70;57.40;;;;;;10414049;28;20056;-57
